EGXW/WTN METAR and TAF weather

Enter ICAO airport designator
Station Type Date Time Source
EGXW METAR 2020/04/05 18:50 UTC NOAA

EGXW 051850Z AUTO 15014KT 9999 NCD 15/06 Q1008


Station Type Date Time Source
EGXW Decoded METAR 2020/04/05 18:50 UTC NOAA

Waddington, United Kingdom (EGXW) 53-10N 000-31W 0M
Apr 05, 2020 - 02:50 PM EDT / 2020.04.05 1850 UTC
Wind: from the SSE (150 degrees) at 16 MPH (14 KT):0
Visibility: greater than 7 mile(s):0
Temperature: 59 F (15 C)
Dew Point: 42 F (6 C)
Relative Humidity: 54%
Pressure (altimeter): 29.77 in. Hg (1008 hPa)
ob: EGXW 051850Z AUTO 15014KT 9999 NCD 15/06 Q1008
cycle: 19

Station Type Date Time Source
EGXW TAF 2020/04/03 12:49 UTC NOAA

TAF EGXW 031241Z 0312/0406 CNL

Example: see airport list